Time;durP1;ratioP1;P1;durP2;ratioP2;P2;SDS_P1;SDS_P2;PMS_P1;PMS_P2;Temp;Humidity;BMP_temperature;BMP_pressure;BME280_temperature;BME280_humidity;BME280_pressure;Samples;Min_cycle;Max_cycle;Signal;HPM_P1;HPM_P2
2022/01/09 00:00:36;;;;;;;44.58;26.10;;;3.60;99.90;;;;;;5091239;28;20139;-46
2022/01/09 00:03:01;;;;;;;43.30;25.27;;;3.50;99.90;;;;;;5090609;28;20044;-45
2022/01/09 00:05:27;;;;;;;63.78;29.33;;;3.70;99.90;;;;;;5090883;28;20394;-45
2022/01/09 00:07:53;;;;;;;42.20;24.17;;;3.60;99.90;;;;;;5091043;28;20117;-45
2022/01/09 00:10:19;;;;;;;67.97;31.05;;;3.50;99.90;;;;;;5088409;28;20043;-44
2022/01/09 00:12:45;;;;;;;46.28;26.17;;;3.60;99.90;;;;;;5090386;28;20055;-46
2022/01/09 00:15:12;;;;;;;71.03;30.50;;;3.50;99.90;;;;;;5090834;28;20048;-47
2022/01/09 00:17:38;;;;;;;42.60;24.38;;;3.60;99.90;;;;;;5090666;28;20040;-46
2022/01/09 00:20:06;;;;;;;40.15;23.85;;;3.80;99.90;;;;;;5090217;28;20047;-46
2022/01/09 00:22:46;;;;;;;40.58;24.58;;;3.60;99.90;;;;;;5090499;28;20385;-46
2022/01/09 00:25:15;;;;;;;61.38;29.75;;;3.50;99.90;;;;;;5090221;28;20048;-46
2022/01/09 00:27:41;;;;;;;44.25;26.05;;;3.50;99.90;;;;;;5091205;28;20047;-44
2022/01/09 00:30:09;;;;;;;41.50;23.83;;;3.50;99.90;;;;;;5088044;28;20070;-45
2022/01/09 00:32:36;;;;;;;51.33;26.67;;;3.50;99.90;;;;;;5091872;28;20052;-46
2022/01/09 00:35:03;;;;;;;44.40;25.50;;;3.50;99.90;;;;;;5085874;28;20087;-46
2022/01/09 00:37:29;;;;;;;46.33;26.20;;;3.50;99.90;;;;;;5088261;28;20500;-45
2022/01/09 00:39:55;;;;;;;61.47;27.20;;;3.50;99.90;;;;;;5071510;28;20143;-46
2022/01/09 00:42:21;;;;;;;38.70;24.30;;;3.50;99.90;;;;;;5071778;28;20044;-46
2022/01/09 00:44:46;;;;;;;42.50;25.13;;;3.50;99.90;;;;;;5071371;28;20044;-45
2022/01/09 00:47:12;;;;;;;48.97;25.67;;;3.50;99.90;;;;;;5070635;28;20059;-45
2022/01/09 00:49:38;;;;;;;52.90;26.40;;;3.50;99.90;;;;;;5071296;28;20072;-45
2022/01/09 00:52:04;;;;;;;40.45;24.65;;;4.20;99.90;;;;;;5071553;28;20036;-46
2022/01/09 00:54:30;;;;;;;47.90;26.20;;;3.50;99.90;;;;;;5071267;28;20482;-48
2022/01/09 00:56:56;;;;;;;52.08;26.65;;;3.50;99.90;;;;;;5071397;28;20049;-47
2022/01/09 00:59:21;;;;;;;52.75;27.23;;;3.50;99.90;;;;;;5071386;28;20401;-45
2022/01/09 01:01:47;;;;;;;53.28;27.85;;;3.50;99.90;;;;;;5070847;28;20047;-46
2022/01/09 01:04:13;;;;;;;42.78;24.52;;;3.50;99.90;;;;;;5071006;28;20559;-46
2022/01/09 01:06:39;;;;;;;47.47;24.92;;;3.50;99.90;;;;;;5070709;28;20041;-46
2022/01/09 01:09:04;;;;;;;40.42;26.00;;;3.90;99.90;;;;;;5070948;28;20104;-45
2022/01/09 01:11:31;;;;;;;45.08;26.13;;;3.50;99.90;;;;;;5069698;28;20040;-45
2022/01/09 01:13:56;;;;;;;47.22;25.58;;;3.60;99.90;;;;;;5071204;28;20036;-48
2022/01/09 01:16:22;;;;;;;59.60;27.17;;;3.50;99.90;;;;;;5070833;28;20045;-45
2022/01/09 01:18:48;;;;;;;58.60;28.20;;;3.50;99.90;;;;;;5070696;28;20128;-45
2022/01/09 01:21:14;;;;;;;44.63;25.15;;;3.50;99.90;;;;;;5071193;28;20462;-45
2022/01/09 01:23:40;;;;;;;68.75;30.95;;;3.50;99.90;;;;;;5070777;28;20101;-46
2022/01/09 01:26:06;;;;;;;70.90;30.30;;;3.50;99.90;;;;;;5070986;28;20041;-46
2022/01/09 01:28:32;;;;;;;41.05;23.95;;;3.50;99.90;;;;;;5070584;28;20080;-46
2022/01/09 01:30:58;;;;;;;58.92;26.77;;;3.50;99.90;;;;;;5070424;28;20177;-45
2022/01/09 01:33:24;;;;;;;49.40;25.65;;;3.50;99.90;;;;;;5070409;28;20101;-45
2022/01/09 01:35:50;;;;;;;42.33;23.27;;;3.50;99.90;;;;;;5070410;28;20412;-45
2022/01/09 01:38:16;;;;;;;37.10;22.63;;;3.50;99.90;;;;;;5077911;28;20044;-46
2022/01/09 01:40:42;;;;;;;71.45;27.40;;;3.60;99.90;;;;;;5090411;28;20115;-45
2022/01/09 01:43:08;;;;;;;62.72;27.65;;;3.60;99.90;;;;;;5090739;28;20036;-45
2022/01/09 01:45:35;;;;;;;41.75;23.08;;;3.60;99.90;;;;;;5090767;28;20044;-46
2022/01/09 01:48:06;;;;;;;56.25;25.63;;;3.50;99.90;;;;;;5090127;28;20085;-45
2022/01/09 01:50:37;;;;;;;51.47;26.45;;;3.60;99.90;;;;;;5090841;28;20051;-47
2022/01/09 01:53:07;;;;;;;75.63;29.73;;;3.50;99.90;;;;;;5090305;28;20040;-46
2022/01/09 01:55:36;;;;;;;83.07;28.98;;;3.60;99.90;;;;;;5090848;28;20375;-45
2022/01/09 01:58:06;;;;;;;40.42;23.92;;;3.60;99.90;;;;;;5090238;28;20131;-45
2022/01/09 02:00:32;;;;;;;69.25;28.55;;;3.60;99.90;;;;;;5090652;28;20040;-46
2022/01/09 02:02:58;;;;;;;66.53;28.50;;;3.50;99.90;;;;;;5090201;28;20062;-46
2022/01/09 02:05:24;;;;;;;54.40;27.17;;;3.60;99.90;;;;;;5090611;28;20039;-45
2022/01/09 02:07:51;;;;;;;55.00;25.83;;;3.50;99.90;;;;;;5090337;28;20032;-45
2022/01/09 02:10:17;;;;;;;66.45;27.75;;;3.80;99.90;;;;;;5090516;28;20044;-45
2022/01/09 02:12:43;;;;;;;54.72;28.17;;;3.40;99.90;;;;;;5090125;28;20062;-45
2022/01/09 02:15:33;;;;;;;62.55;28.10;;;3.60;99.90;;;;;;5090350;28;20059;-48
2022/01/09 02:18:20;;;;;;;75.35;31.38;;;3.60;99.90;;;;;;5090270;28;20035;-47
2022/01/09 02:20:47;;;;;;;60.97;29.60;;;3.60;99.90;;;;;;5090029;28;20065;-45
2022/01/09 02:23:15;;;;;;;74.30;30.60;;;3.50;99.90;;;;;;5090256;28;20040;-46
2022/01/09 02:25:42;;;;;;;69.00;31.23;;;4.00;99.90;;;;;;5090280;28;20085;-45
2022/01/09 02:28:09;;;;;;;80.53;32.22;;;3.50;99.90;;;;;;5090077;28;20040;-49
2022/01/09 02:30:36;;;;;;;76.55;32.85;;;3.60;99.90;;;;;;5090361;28;20066;-45
2022/01/09 02:33:04;;;;;;;82.82;33.67;;;3.60;99.90;;;;;;5090038;28;20192;-47
2022/01/09 02:35:30;;;;;;;99.25;36.50;;;3.60;99.90;;;;;;5090435;28;20046;-47
2022/01/09 02:37:56;;;;;;;64.05;33.28;;;3.60;99.90;;;;;;5087746;28;20123;-45
2022/01/09 02:40:23;;;;;;;100.93;35.92;;;3.60;99.90;;;;;;5090398;28;20046;-45
2022/01/09 02:42:51;;;;;;;101.50;38.47;;;3.50;99.90;;;;;;5089938;28;20115;-47
2022/01/09 02:45:20;;;;;;;162.02;44.22;;;3.60;99.90;;;;;;5090117;28;20044;-45
2022/01/09 02:47:47;;;;;;;130.45;42.45;;;3.60;99.90;;;;;;5089574;28;20052;-45
2022/01/09 02:52:58;;;;;;;117.63;40.95;;;3.60;99.90;;;;;;5089686;28;20048;-46
2022/01/09 02:55:25;;;;;;;92.28;35.38;;;3.60;99.90;;;;;;5089771;28;20489;-46
2022/01/09 02:57:53;;;;;;;110.63;40.85;;;3.70;99.90;;;;;;5089584;28;20060;-47
2022/01/09 03:00:21;;;;;;;108.55;39.25;;;3.60;99.90;;;;;;5089688;28;20082;-46
2022/01/09 03:02:47;;;;;;;109.95;39.83;;;3.70;99.90;;;;;;5089508;28;20486;-45
2022/01/09 03:05:13;;;;;;;108.95;38.55;;;3.70;99.90;;;;;;5089659;28;20048;-45
2022/01/09 03:07:40;;;;;;;105.80;36.60;;;3.70;99.90;;;;;;5089422;28;20044;-45
2022/01/09 03:10:07;;;;;;;102.28;35.47;;;3.70;99.90;;;;;;5092447;28;20048;-45
2022/01/09 03:12:33;;;;;;;82.15;32.85;;;3.90;99.90;;;;;;5093414;28;20405;-45
2022/01/09 03:14:59;;;;;;;76.88;29.98;;;3.80;99.90;;;;;;5093266;28;20046;-46
2022/01/09 03:17:25;;;;;;;72.78;26.15;;;3.90;99.90;;;;;;5093749;28;20079;-46
2022/01/09 03:19:51;;;;;;;83.72;28.67;;;3.90;99.90;;;;;;5093006;28;20083;-46
2022/01/09 03:22:17;;;;;;;96.72;31.90;;;4.00;99.90;;;;;;5093084;28;20122;-45
2022/01/09 03:24:42;;;;;;;87.75;30.33;;;4.00;99.90;;;;;;5093206;28;20032;-45
2022/01/09 03:27:09;;;;;;;99.68;30.77;;;4.00;99.90;;;;;;5092858;28;20507;-45
2022/01/09 03:29:35;;;;;;;83.15;29.42;;;4.00;99.90;;;;;;5092912;28;20040;-46
2022/01/09 03:32:01;;;;;;;83.90;27.02;;;4.00;99.90;;;;;;5092781;28;20051;-46
2022/01/09 03:34:27;;;;;;;106.10;28.27;;;4.10;99.90;;;;;;5092754;28;20044;-45
2022/01/09 03:36:53;;;;;;;94.40;28.25;;;4.00;99.90;;;;;;5093168;28;20069;-47
2022/01/09 03:39:19;;;;;;;98.30;25.80;;;4.10;99.90;;;;;;5090610;28;20100;-46
2022/01/09 03:41:45;;;;;;;79.78;25.80;;;5.10;99.90;;;;;;5093054;28;20111;-46
2022/01/09 03:44:10;;;;;;;72.03;24.02;;;4.10;99.90;;;;;;5092346;28;20040;-45
2022/01/09 03:46:36;;;;;;;73.00;23.65;;;4.20;99.90;;;;;;5092723;28;20036;-45
2022/01/09 03:49:02;;;;;;;62.88;21.35;;;5.10;99.90;;;;;;5092514;28;20558;-45
2022/01/09 03:51:32;;;;;;;80.40;22.00;;;4.30;99.90;;;;;;5092683;28;20040;-45
2022/01/09 03:53:59;;;;;;;72.28;21.60;;;4.30;99.90;;;;;;5092213;28;20048;-45
2022/01/09 03:56:25;;;;;;;73.57;20.65;;;4.30;99.90;;;;;;5092314;28;20079;-45
2022/01/09 03:58:51;;;;;;;75.28;23.15;;;4.30;99.90;;;;;;5092789;28;20118;-45
2022/01/09 04:01:17;;;;;;;77.22;20.15;;;4.30;99.90;;;;;;5092806;28;20051;-45
2022/01/09 04:03:43;;;;;;;60.08;17.63;;;4.40;99.90;;;;;;5092583;28;20043;-45
2022/01/09 04:06:08;;;;;;;81.85;18.77;;;4.30;99.90;;;;;;5092187;28;20039;-45
2022/01/09 04:08:34;;;;;;;71.47;14.73;;;4.30;99.90;;;;;;5092570;28;20044;-45
2022/01/09 04:11:05;;;;;;;56.80;12.80;;;4.40;99.90;;;;;;5092409;28;20044;-45
2022/01/09 04:13:31;;;;;;;70.22;11.77;;;4.40;99.90;;;;;;5092516;28;20123;-46
2022/01/09 04:15:57;;;;;;;61.45;10.55;;;4.50;99.90;;;;;;5092328;28;20538;-45
2022/01/09 04:18:23;;;;;;;68.82;9.73;;;5.30;99.90;;;;;;5091752;28;20051;-46
2022/01/09 04:20:51;;;;;;;66.65;11.27;;;4.60;99.90;;;;;;5092022;28;20488;-45
2022/01/09 04:23:19;;;;;;;72.97;11.60;;;4.60;99.90;;;;;;5091647;28;20595;-45
2022/01/09 04:25:45;;;;;;;93.45;23.77;;;4.70;99.90;;;;;;5092270;28;20044;-45
2022/01/09 04:28:13;;;;;;;79.07;9.63;;;4.80;99.90;;;;;;5091958;28;20043;-48
2022/01/09 04:30:39;;;;;;;78.63;11.18;;;5.40;99.90;;;;;;5091931;28;20036;-45
2022/01/09 04:33:05;;;;;;;90.47;12.82;;;4.90;99.90;;;;;;5091415;28;20046;-45
2022/01/09 04:35:31;;;;;;;96.63;10.55;;;4.90;99.90;;;;;;5091872;28;20078;-45
2022/01/09 04:37:57;;;;;;;84.00;11.93;;;6.00;99.90;;;;;;5089736;28;20077;-45
2022/01/09 04:40:23;;;;;;;96.88;12.15;;;5.00;99.90;;;;;;5091662;28;20044;-45
2022/01/09 04:42:57;;;;;;;94.38;12.68;;;5.00;99.90;;;;;;5091963;28;20036;-45
2022/01/09 04:45:25;;;;;;;78.35;8.70;;;5.00;99.90;;;;;;5091561;28;20547;-46
2022/01/09 04:47:52;;;;;;;81.50;10.50;;;5.10;99.90;;;;;;5091701;28;20052;-45
2022/01/09 04:50:28;;;;;;;89.50;10.35;;;5.10;99.90;;;;;;5090145;28;20515;-45
2022/01/09 04:53:04;;;;;;;81.10;9.30;;;5.50;99.90;;;;;;5089966;28;20394;-45
2022/01/09 04:55:33;;;;;;;74.97;6.90;;;5.20;99.90;;;;;;5091780;28;20043;-45
2022/01/09 04:57:59;;;;;;;86.03;8.02;;;5.10;99.90;;;;;;5091245;28;20117;-45
2022/01/09 05:00:25;;;;;;;84.45;8.38;;;5.40;99.90;;;;;;5090855;28;20051;-45
2022/01/09 05:02:50;;;;;;;81.95;8.55;;;5.60;99.90;;;;;;5091290;28;20036;-46
2022/01/09 05:05:17;;;;;;;66.15;7.63;;;5.10;99.90;;;;;;5090763;28;20051;-45
2022/01/09 05:07:43;;;;;;;62.28;6.97;;;5.10;99.90;;;;;;5091188;28;20048;-45
2022/01/09 05:10:10;;;;;;;71.55;7.00;;;5.50;99.90;;;;;;5091017;28;20505;-45
2022/01/09 05:12:36;;;;;;;72.07;8.20;;;5.20;99.90;;;;;;5091016;28;20051;-45
2022/01/09 05:15:03;;;;;;;82.70;10.40;;;5.10;99.90;;;;;;5089888;28;20044;-45
2022/01/09 05:17:29;;;;;;;77.78;8.43;;;5.20;99.90;;;;;;5090944;28;20115;-46
2022/01/09 05:19:57;;;;;;;68.57;7.22;;;5.00;99.90;;;;;;5091150;28;20184;-46
2022/01/09 05:22:29;;;;;;;63.75;6.25;;;6.10;99.90;;;;;;5090875;28;20048;-46
2022/01/09 05:24:58;;;;;;;99.72;9.75;;;5.10;99.90;;;;;;5090893;28;20505;-46
2022/01/09 05:27:25;;;;;;;57.78;5.18;;;5.00;99.90;;;;;;5091032;28;20059;-46
2022/01/09 05:29:51;;;;;;;59.50;7.22;;;4.90;99.90;;;;;;5090846;28;20036;-46
2022/01/09 05:32:19;;;;;;;89.55;8.73;;;5.00;99.90;;;;;;5090127;28;20043;-45
2022/01/09 05:34:44;;;;;;;70.30;7.72;;;5.00;99.90;;;;;;5090587;28;20481;-46
2022/01/09 05:37:10;;;;;;;82.53;6.63;;;5.70;99.90;;;;;;5090143;28;20040;-46
2022/01/09 05:39:36;;;;;;;52.30;6.95;;;5.80;99.90;;;;;;5070627;28;20040;-45
2022/01/09 05:42:05;;;;;;;74.35;6.53;;;5.10;99.90;;;;;;5070855;28;20040;-45
2022/01/09 05:44:32;;;;;;;72.50;6.75;;;5.10;99.90;;;;;;5070727;28;20075;-47
2022/01/09 05:47:01;;;;;;;55.47;7.13;;;5.00;99.90;;;;;;5071029;28;20107;-46
2022/01/09 05:49:27;;;;;;;52.65;6.88;;;5.00;99.90;;;;;;5070412;28;20087;-45
2022/01/09 05:51:53;;;;;;;48.10;5.22;;;4.90;99.90;;;;;;5070605;28;20041;-45
2022/01/09 05:54:19;;;;;;;59.80;6.25;;;5.50;99.90;;;;;;5070538;28;20044;-45
2022/01/09 05:56:44;;;;;;;53.17;5.63;;;3.10;99.90;;;;;;5070681;28;20560;-46
2022/01/09 05:59:10;;;;;;;51.58;4.85;;;4.90;99.90;;;;;;5071012;28;20079;-45
2022/01/09 06:01:36;;;;;;;51.63;6.47;;;4.90;99.90;;;;;;5070491;28;20037;-45
2022/01/09 06:04:02;;;;;;;58.10;6.78;;;4.80;99.90;;;;;;5070224;28;20379;-45
2022/01/09 06:06:28;;;;;;;64.07;6.20;;;4.90;99.90;;;;;;5069897;28;20036;-46
2022/01/09 06:08:54;;;;;;;52.33;4.20;;;5.90;99.90;;;;;;5070446;28;20075;-46
2022/01/09 06:11:20;;;;;;;50.83;4.45;;;4.70;99.90;;;;;;5070415;28;20044;-45
2022/01/09 06:13:46;;;;;;;59.47;5.05;;;4.70;99.90;;;;;;5070227;28;20053;-45
2022/01/09 06:16:13;;;;;;;46.83;4.65;;;4.60;99.90;;;;;;5070224;28;20127;-45
2022/01/09 06:18:39;;;;;;;54.67;6.40;;;4.60;99.90;;;;;;5070188;28;20390;-46
2022/01/09 06:21:04;;;;;;;46.08;5.65;;;4.50;99.90;;;;;;5070135;28;20131;-45
2022/01/09 06:23:30;;;;;;;41.38;2.92;;;4.60;99.90;;;;;;5069724;28;20044;-45
2022/01/09 06:25:56;;;;;;;38.28;4.28;;;4.60;99.90;;;;;;5069995;28;20043;-45
2022/01/09 06:28:22;;;;;;;32.58;2.95;;;4.60;99.90;;;;;;5069930;28;20558;-45
2022/01/09 06:30:48;;;;;;;54.70;4.18;;;4.50;99.90;;;;;;5069764;28;20044;-45
2022/01/09 06:33:14;;;;;;;43.47;4.22;;;4.50;99.90;;;;;;5069744;28;20097;-45
2022/01/09 06:35:40;;;;;;;49.17;5.53;;;4.50;99.90;;;;;;5069808;28;20036;-45
2022/01/09 06:38:06;;;;;;;43.13;4.45;;;4.40;99.90;;;;;;5075493;28;20122;-45
2022/01/09 06:40:33;;;;;;;47.22;4.55;;;4.40;99.90;;;;;;5090214;28;20044;-45
2022/01/09 06:42:59;;;;;;;54.92;4.90;;;4.40;99.90;;;;;;5090452;28;20048;-45
2022/01/09 06:45:25;;;;;;;44.15;5.85;;;4.70;99.90;;;;;;5093570;28;20122;-45
2022/01/09 06:47:52;;;;;;;37.10;3.25;;;4.40;99.90;;;;;;5094270;28;20040;-46
2022/01/09 06:50:18;;;;;;;40.42;3.40;;;4.40;99.90;;;;;;5094489;28;20036;-45
2022/01/09 06:52:44;;;;;;;38.80;4.22;;;4.30;99.90;;;;;;5093494;28;20075;-45
2022/01/09 06:55:11;;;;;;;55.70;5.78;;;5.30;99.90;;;;;;5094042;28;20040;-46
2022/01/09 06:57:37;;;;;;;39.13;5.20;;;4.40;99.90;;;;;;5094108;28;20060;-45
2022/01/09 07:00:04;;;;;;;43.63;3.55;;;4.30;99.90;;;;;;5093969;28;20039;-46
2022/01/09 07:02:30;;;;;;;38.97;3.83;;;4.30;99.90;;;;;;5093919;28;20394;-45
2022/01/09 07:04:56;;;;;;;48.80;5.05;;;4.30;99.90;;;;;;5093896;28;20040;-45
2022/01/09 07:07:21;;;;;;;37.15;3.50;;;4.30;99.90;;;;;;5093411;28;20043;-45
2022/01/09 07:09:47;;;;;;;44.92;5.35;;;4.20;99.90;;;;;;5093760;28;20468;-45
2022/01/09 07:12:13;;;;;;;48.50;5.78;;;5.60;99.90;;;;;;5093685;28;20039;-45
2022/01/09 07:14:38;;;;;;;38.13;3.83;;;4.20;99.90;;;;;;5093381;28;20481;-45
2022/01/09 07:17:04;;;;;;;59.60;4.07;;;4.20;99.90;;;;;;5093445;28;20406;-45
2022/01/09 07:19:30;;;;;;;43.50;4.38;;;4.30;99.90;;;;;;5093406;28;20040;-45
2022/01/09 07:21:55;;;;;;;38.00;4.32;;;4.30;99.90;;;;;;5093793;28;20036;-45
2022/01/09 07:24:21;;;;;;;37.65;3.80;;;4.20;99.90;;;;;;5093434;28;20503;-45
2022/01/09 07:26:47;;;;;;;41.80;5.43;;;4.20;99.90;;;;;;5093426;28;20529;-47
2022/01/09 07:29:13;;;;;;;40.10;4.07;;;4.30;99.90;;;;;;5093525;28;20048;-45
2022/01/09 07:31:39;;;;;;;44.55;3.70;;;4.30;99.90;;;;;;5093153;28;20611;-45
2022/01/09 07:34:04;;;;;;;44.10;3.55;;;4.20;99.90;;;;;;5093245;28;20044;-45
2022/01/09 07:36:30;;;;;;;57.17;5.03;;;4.20;99.90;;;;;;5092866;28;20039;-46
2022/01/09 07:38:56;;;;;;;28.17;2.83;;;4.20;99.90;;;;;;5090979;28;20504;-45
2022/01/09 07:41:22;;;;;;;46.15;3.53;;;4.20;99.90;;;;;;5093205;28;20048;-45
2022/01/09 07:43:47;;;;;;;34.58;3.50;;;4.20;99.90;;;;;;5093204;28;20066;-45
2022/01/09 07:46:13;;;;;;;27.85;3.78;;;4.10;99.90;;;;;;5093043;28;20067;-45
2022/01/09 07:48:39;;;;;;;36.13;3.08;;;4.10;99.90;;;;;;5092862;28;20040;-45
2022/01/09 07:51:05;;;;;;;33.92;2.65;;;4.10;99.90;;;;;;5084147;28;20047;-45
2022/01/09 07:53:32;;;;;;;42.92;3.92;;;4.10;99.90;;;;;;5082948;28;20044;-45
2022/01/09 07:55:57;;;;;;;38.40;3.63;;;4.10;99.90;;;;;;5080888;28;20133;-45
2022/01/09 07:58:23;;;;;;;38.22;4.18;;;4.10;99.90;;;;;;5082338;28;20113;-46
2022/01/09 08:00:49;;;;;;;31.85;3.15;;;4.20;99.90;;;;;;5082359;28;20049;-45
2022/01/09 08:03:15;;;;;;;37.53;4.30;;;4.10;99.90;;;;;;5081051;28;20045;-45
2022/01/09 08:05:41;;;;;;;37.13;3.00;;;4.10;99.90;;;;;;5082749;28;20394;-46
2022/01/09 08:08:07;;;;;;;27.15;2.63;;;4.00;99.90;;;;;;5083424;28;20562;-45
2022/01/09 08:10:33;;;;;;;33.17;2.88;;;4.00;99.90;;;;;;5082633;28;20044;-46
2022/01/09 08:13:02;;;;;;;26.23;2.47;;;4.00;99.90;;;;;;5075337;28;20041;-45
2022/01/09 08:15:28;;;;;;;25.95;2.08;;;4.00;99.90;;;;;;5081801;28;20133;-45
2022/01/09 08:17:54;;;;;;;33.28;3.67;;;4.00;99.90;;;;;;5082450;28;20044;-44
2022/01/09 08:20:20;;;;;;;28.55;3.47;;;4.10;99.90;;;;;;5079892;28;20032;-44
2022/01/09 08:22:47;;;;;;;29.10;3.42;;;4.00;99.90;;;;;;5083995;28;20136;-44
2022/01/09 08:25:14;;;;;;;28.92;2.42;;;3.90;99.90;;;;;;5086596;28;20054;-45
2022/01/09 08:27:40;;;;;;;26.73;2.28;;;3.90;99.90;;;;;;5086813;28;20048;-44
2022/01/09 08:30:07;;;;;;;27.85;3.75;;;3.90;99.90;;;;;;5076532;28;20036;-45
2022/01/09 08:32:34;;;;;;;29.83;2.80;;;4.00;99.90;;;;;;5088168;28;20098;-45
2022/01/09 08:35:00;;;;;;;19.70;2.33;;;4.90;99.90;;;;;;5076579;28;20542;-45
2022/01/09 08:37:26;;;;;;;22.75;1.75;;;4.00;99.90;;;;;;5076878;28;20052;-45
2022/01/09 08:39:52;;;;;;;24.25;2.78;;;4.10;99.90;;;;;;5080611;28;20516;-44
2022/01/09 08:42:18;;;;;;;29.30;2.58;;;4.00;99.90;;;;;;5082371;28;20400;-45
2022/01/09 08:44:43;;;;;;;19.48;2.40;;;3.90;99.90;;;;;;5081176;28;20044;-44
2022/01/09 08:47:10;;;;;;;22.08;1.65;;;4.00;99.90;;;;;;5081176;28;20489;-47
2022/01/09 08:49:36;;;;;;;28.27;2.30;;;4.00;99.90;;;;;;5082973;28;20035;-45
2022/01/09 08:52:03;;;;;;;21.88;3.92;;;3.90;99.90;;;;;;5091680;28;20075;-45
2022/01/09 08:54:29;;;;;;;23.52;2.70;;;4.00;99.90;;;;;;5085957;28;20066;-46
2022/01/09 08:56:55;;;;;;;29.63;2.33;;;3.90;99.90;;;;;;5082488;28;20075;-45
2022/01/09 08:59:22;;;;;;;18.30;1.90;;;3.90;99.90;;;;;;5081152;28;20044;-45
2022/01/09 09:01:48;;;;;;;28.08;2.20;;;4.00;99.90;;;;;;5078557;28;20486;-45
2022/01/09 09:04:15;;;;;;;23.20;1.77;;;4.00;99.90;;;;;;5082009;28;20420;-44
2022/01/09 09:06:41;;;;;;;20.35;2.08;;;4.00;99.90;;;;;;5076024;28;20048;-45
2022/01/09 09:09:07;;;;;;;17.73;2.08;;;4.00;99.90;;;;;;5071128;28;20132;-45
2022/01/09 09:11:33;;;;;;;25.05;1.98;;;4.20;99.90;;;;;;5071006;28;20083;-44
2022/01/09 09:13:59;;;;;;;21.73;2.15;;;4.10;99.90;;;;;;5070852;28;20080;-44
2022/01/09 09:16:25;;;;;;;20.55;2.75;;;4.20;99.90;;;;;;5070900;28;20497;-45
2022/01/09 09:18:52;;;;;;;26.23;2.38;;;4.20;99.90;;;;;;5070344;28;20036;-44
2022/01/09 09:21:17;;;;;;;27.23;2.08;;;4.20;99.90;;;;;;5070728;28;20082;-45
2022/01/09 09:23:43;;;;;;;20.80;2.53;;;4.20;99.90;;;;;;5070595;28;20090;-45
2022/01/09 09:26:10;;;;;;;23.55;2.25;;;4.30;99.90;;;;;;5070090;28;20059;-45
2022/01/09 09:28:36;;;;;;;20.73;2.65;;;5.30;99.90;;;;;;5070420;28;20036;-45
2022/01/09 09:31:03;;;;;;;30.15;3.47;;;4.30;99.90;;;;;;5070320;28;20052;-46
2022/01/09 09:33:29;;;;;;;27.27;2.85;;;5.40;99.90;;;;;;5076757;28;20041;-45
2022/01/09 09:35:58;;;;;;;30.30;3.20;;;4.20;99.90;;;;;;5080103;28;20040;-45
2022/01/09 09:38:24;;;;;;;29.27;2.92;;;4.30;99.90;;;;;;5070169;28;20115;-45
2022/01/09 09:40:50;;;;;;;16.85;1.92;;;4.40;99.90;;;;;;5070597;28;20125;-44
2022/01/09 09:43:17;;;;;;;20.85;2.25;;;4.30;99.90;;;;;;5069230;28;20047;-45
2022/01/09 09:45:43;;;;;;;26.65;4.68;;;4.40;99.90;;;;;;5070147;28;20040;-44
2022/01/09 09:48:09;;;;;;;17.85;2.25;;;4.40;99.90;;;;;;5070176;28;20454;-45
2022/01/09 09:50:34;;;;;;;23.48;2.75;;;4.40;99.90;;;;;;5070623;28;20424;-45
2022/01/09 09:53:02;;;;;;;19.00;2.63;;;4.40;99.90;;;;;;5070169;28;20495;-45
2022/01/09 09:55:28;;;;;;;26.23;2.42;;;4.40;99.90;;;;;;5070668;28;20047;-45
2022/01/09 09:57:55;;;;;;;18.08;2.25;;;4.40;99.90;;;;;;5069703;28;20126;-45
2022/01/09 10:00:22;;;;;;;26.48;2.42;;;5.10;99.90;;;;;;5070125;28;20041;-45
2022/01/09 10:02:53;;;;;;;25.80;2.40;;;4.50;99.90;;;;;;5069865;28;20083;-44
2022/01/09 10:05:27;;;;;;;25.15;3.58;;;4.90;99.90;;;;;;5070210;28;20520;-45
2022/01/09 10:08:06;;;;;;;21.52;2.92;;;4.40;99.90;;;;;;5069630;28;20033;-45
2022/01/09 10:10:35;;;;;;;25.25;2.88;;;4.40;99.90;;;;;;5070168;28;20056;-45
2022/01/09 10:13:18;;;;;;;19.50;2.28;;;4.40;99.90;;;;;;5069761;28;20121;-45
2022/01/09 10:15:49;;;;;;;21.80;2.78;;;4.40;99.90;;;;;;5080264;28;20390;-45
2022/01/09 10:18:39;;;;;;;18.13;1.47;;;4.40;99.90;;;;;;5080772;28;20032;-45
2022/01/09 10:21:11;;;;;;;11.38;1.17;;;4.40;99.90;;;;;;5081400;28;20290;-46
2022/01/09 10:23:57;;;;;;;14.02;2.08;;;5.30;99.90;;;;;;5082880;28;20036;-46
2022/01/09 10:26:23;;;;;;;13.40;1.00;;;4.30;99.90;;;;;;5068881;28;20592;-46
2022/01/09 10:28:48;;;;;;;18.90;1.95;;;4.30;99.90;;;;;;5077027;28;20130;-46
2022/01/09 10:31:16;;;;;;;19.50;1.48;;;4.90;99.90;;;;;;5074088;28;20033;-47
2022/01/09 10:33:59;;;;;;;20.40;1.73;;;4.50;99.90;;;;;;5075848;28;20511;-46
2022/01/09 10:36:35;;;;;;;10.18;1.33;;;4.60;99.90;;;;;;5080880;28;20483;-46
2022/01/09 10:39:12;;;;;;;23.63;3.17;;;4.60;99.90;;;;;;5078333;28;20124;-45
2022/01/09 10:41:48;;;;;;;16.33;1.30;;;4.60;99.90;;;;;;5080386;28;20035;-45
2022/01/09 10:44:16;;;;;;;13.45;1.23;;;4.50;99.90;;;;;;5079794;28;20036;-45
2022/01/09 10:46:54;;;;;;;16.10;1.13;;;4.70;99.90;;;;;;5078052;28;20115;-45
2022/01/09 10:49:20;;;;;;;13.70;1.20;;;4.60;99.90;;;;;;5077933;28;20043;-45
2022/01/09 10:51:46;;;;;;;10.07;0.93;;;4.40;99.90;;;;;;5080849;28;20040;-45
2022/01/09 10:54:30;;;;;;;10.82;1.15;;;4.50;99.90;;;;;;5078248;28;20051;-46
2022/01/09 10:57:13;;;;;;;9.35;1.13;;;4.60;99.90;;;;;;5079529;28;20131;-47
2022/01/09 10:59:39;;;;;;;15.02;1.10;;;4.50;99.90;;;;;;5075017;28;20048;-46
2022/01/09 11:02:05;;;;;;;13.80;1.23;;;4.50;99.90;;;;;;5075117;28;20037;-46
2022/01/09 11:04:31;;;;;;;14.55;1.27;;;4.90;99.90;;;;;;5079824;28;20674;-46
2022/01/09 11:06:58;;;;;;;10.75;1.60;;;4.50;99.90;;;;;;5079331;28;20051;-46
2022/01/09 11:09:26;;;;;;;9.73;1.38;;;4.40;99.90;;;;;;5074701;28;20125;-45
2022/01/09 11:11:54;;;;;;;19.58;1.48;;;4.30;99.90;;;;;;5069159;28;20044;-45
2022/01/09 11:14:22;;;;;;;12.30;1.48;;;4.40;99.90;;;;;;5073078;28;20633;-46
2022/01/09 11:16:53;;;;;;;6.50;1.05;;;4.30;99.90;;;;;;5080700;28;20047;-45
2022/01/09 11:19:23;;;;;;;15.43;1.13;;;4.30;99.90;;;;;;5074117;28;20113;-45
2022/01/09 11:21:55;;;;;;;15.80;1.10;;;4.50;99.90;;;;;;5073974;28;20072;-45
2022/01/09 11:24:39;;;;;;;8.95;0.73;;;4.50;99.90;;;;;;5072212;28;20071;-46
2022/01/09 11:27:19;;;;;;;6.82;0.80;;;4.40;99.90;;;;;;5076874;28;20044;-45
2022/01/09 11:30:05;;;;;;;13.15;0.98;;;4.50;99.90;;;;;;5080776;28;20043;-45
2022/01/09 11:32:48;;;;;;;11.35;0.93;;;4.60;99.90;;;;;;5083786;28;20044;-45
2022/01/09 11:35:40;;;;;;;10.15;0.95;;;4.70;99.90;;;;;;5095807;28;20050;-45
2022/01/09 11:38:24;;;;;;;19.23;2.22;;;4.80;99.90;;;;;;5085702;28;20390;-46
2022/01/09 11:40:49;;;;;;;15.63;1.63;;;4.80;99.90;;;;;;5081480;28;20101;-46
2022/01/09 11:43:18;;;;;;;14.88;1.35;;;4.80;99.90;;;;;;5078982;28;20028;-46
2022/01/09 11:45:58;;;;;;;18.30;1.30;;;4.80;99.90;;;;;;5072581;28;20370;-46
2022/01/09 11:49:04;;;;;;;16.77;2.47;;;4.80;99.90;;;;;;5071847;28;20123;-47
2022/01/09 11:51:31;;;;;;;16.08;1.25;;;5.00;99.90;;;;;;5072371;28;20051;-46
2022/01/09 11:54:15;;;;;;;14.90;1.10;;;5.00;99.90;;;;;;5072190;28;20566;-46
2022/01/09 11:57:00;;;;;;;24.55;1.70;;;5.10;99.90;;;;;;5072438;28;20088;-47
2022/01/09 11:59:38;;;;;;;21.92;1.65;;;5.10;99.90;;;;;;5071273;28;20109;-47
2022/01/09 12:02:28;;;;;;;17.48;2.95;;;5.40;99.90;;;;;;5071534;28;20044;-46
2022/01/09 12:04:55;;;;;;;12.20;1.50;;;5.20;99.90;;;;;;5072398;28;20040;-47
2022/01/09 12:07:34;;;;;;;16.58;2.08;;;5.40;99.90;;;;;;5071765;28;20063;-48
2022/01/09 12:10:29;;;;;;;17.08;1.75;;;5.50;99.90;;;;;;5071790;28;20040;-46
2022/01/09 12:12:55;;;;;;;14.20;1.85;;;5.40;99.90;;;;;;5072055;28;20464;-46
2022/01/09 12:15:47;;;;;;;18.85;1.70;;;5.50;99.90;;;;;;5071781;28;20115;-46
2022/01/09 12:18:42;;;;;;;20.35;1.75;;;5.50;99.90;;;;;;5069879;28;20138;-48
2022/01/09 12:21:09;;;;;;;21.48;2.58;;;5.50;99.90;;;;;;5071779;28;20125;-46
2022/01/09 12:23:35;;;;;;;13.60;1.90;;;5.70;99.90;;;;;;5071484;28;20056;-48
2022/01/09 12:26:01;;;;;;;17.05;2.47;;;5.60;99.90;;;;;;5071595;28;20040;-48
2022/01/09 12:28:38;;;;;;;13.02;1.67;;;5.60;99.90;;;;;;5071578;28;20033;-47
2022/01/09 12:31:05;;;;;;;19.30;1.70;;;5.70;99.90;;;;;;5071493;28;20089;-47
2022/01/09 12:33:34;;;;;;;16.02;1.27;;;6.70;99.90;;;;;;5071442;28;20127;-47
2022/01/09 12:36:07;;;;;;;14.88;1.20;;;5.70;99.90;;;;;;5070040;28;20084;-48
2022/01/09 12:38:43;;;;;;;16.20;2.45;;;5.60;99.90;;;;;;5081188;28;20079;-47
2022/01/09 12:41:30;;;;;;;8.32;0.98;;;5.60;99.90;;;;;;5089167;28;20052;-48
2022/01/09 12:44:00;;;;;;;10.18;0.88;;;5.70;99.90;;;;;;5091684;28;20093;-46
2022/01/09 12:46:28;;;;;;;16.67;1.52;;;5.60;99.90;;;;;;5091580;28;20695;-47
2022/01/09 12:48:54;;;;;;;11.52;1.35;;;5.80;99.90;;;;;;5091458;28;20032;-47
2022/01/09 12:51:20;;;;;;;13.52;0.73;;;5.70;99.90;;;;;;5091068;28;20085;-47